Time;durP1;ratioP1;P1;durP2;ratioP2;P2;SDS_P1;SDS_P2;PMS_P1;PMS_P2;Temp;Humidity;BMP_temperature;BMP_pressure;BME280_temperature;BME280_humidity;BME280_pressure;Samples;Min_cycle;Max_cycle;Signal;HPM_P1;HPM_P2
2022/08/03 00:02:22;;;;;;;1.70;1.60;;;23.60;1.00;;;;;;5035075;28;20057;-79
2022/08/03 00:04:47;;;;;;;2.58;1.48;;;23.60;1.00;;;;;;5034927;28;20022;-79
2022/08/03 00:07:13;;;;;;;2.42;1.58;;;23.50;1.00;;;;;;5035089;28;20442;-78
2022/08/03 00:09:39;;;;;;;3.38;1.48;;;23.30;1.00;;;;;;5034658;28;20028;-79
2022/08/03 00:12:05;;;;;;;1.90;1.50;;;23.20;1.00;;;;;;5034945;28;20375;-79
2022/08/03 00:14:31;;;;;;;1.88;1.40;;;23.20;1.00;;;;;;5035084;28;20057;-79
2022/08/03 00:16:56;;;;;;;1.70;1.42;;;23.20;1.00;;;;;;5034717;28;20056;-79
2022/08/03 00:19:22;;;;;;;1.73;1.58;;;23.10;1.00;;;;;;5034724;28;20558;-79
2022/08/03 00:21:48;;;;;;;2.45;1.40;;;23.20;1.00;;;;;;5034924;28;20103;-79
2022/08/03 00:24:13;;;;;;;2.03;1.70;;;23.20;1.00;;;;;;5034243;28;20037;-79
2022/08/03 00:26:39;;;;;;;2.40;1.55;;;23.20;1.00;;;;;;5034560;28;20045;-78
2022/08/03 00:29:04;;;;;;;1.70;1.50;;;23.20;1.00;;;;;;5034363;28;20030;-79
2022/08/03 00:31:30;;;;;;;3.55;1.45;;;23.30;1.00;;;;;;5033511;28;20049;-79
2022/08/03 00:33:56;;;;;;;1.63;1.52;;;23.40;1.00;;;;;;5034672;28;20117;-79
2022/08/03 00:36:21;;;;;;;3.15;1.50;;;23.30;1.00;;;;;;5034320;28;20106;-79
2022/08/03 00:38:47;;;;;;;1.95;1.50;;;23.00;1.00;;;;;;5033933;28;20075;-78
2022/08/03 00:41:13;;;;;;;1.58;1.48;;;23.10;1.00;;;;;;5033569;28;20033;-79
2022/08/03 00:43:38;;;;;;;1.73;1.55;;;23.10;1.00;;;;;;5034365;28;20549;-79
2022/08/03 00:46:04;;;;;;;1.92;1.70;;;22.90;1.00;;;;;;5034570;28;20030;-79
2022/08/03 00:48:29;;;;;;;3.00;1.50;;;22.80;1.00;;;;;;5034495;28;20022;-79
2022/08/03 00:50:55;;;;;;;1.63;1.48;;;22.60;1.00;;;;;;5034267;28;20390;-79
2022/08/03 00:53:21;;;;;;;2.47;1.40;;;22.40;1.00;;;;;;5033758;28;20044;-78
2022/08/03 00:55:47;;;;;;;4.57;1.40;;;22.30;1.00;;;;;;5033117;28;20091;-79
2022/08/03 00:58:12;;;;;;;3.78;1.40;;;22.40;1.00;;;;;;5034071;28;20033;-79
2022/08/03 01:00:39;;;;;;;4.05;1.80;;;22.50;1.00;;;;;;5034057;28;20029;-79
2022/08/03 01:03:07;;;;;;;2.20;1.48;;;22.40;1.00;;;;;;5033880;28;20152;-79
2022/08/03 01:05:43;;;;;;;2.00;1.60;;;22.40;1.00;;;;;;5034400;28;20402;-79
2022/08/03 01:08:23;;;;;;;1.77;1.48;;;22.20;1.00;;;;;;5033413;28;20029;-78
2022/08/03 01:10:53;;;;;;;4.20;1.40;;;22.40;1.00;;;;;;5033735;28;20486;-79
2022/08/03 01:13:48;;;;;;;3.53;1.50;;;22.40;1.00;;;;;;5033614;28;20037;-79
2022/08/03 01:16:29;;;;;;;3.10;1.60;;;22.20;1.00;;;;;;5033479;28;20018;-79
2022/08/03 01:19:19;;;;;;;1.80;1.50;;;22.30;1.00;;;;;;5034234;28;20032;-79
2022/08/03 01:21:45;;;;;;;1.85;1.40;;;22.30;1.00;;;;;;5032396;28;20034;-79
2022/08/03 01:24:33;;;;;;;2.10;1.48;;;22.30;1.00;;;;;;5033442;28;20086;-78
2022/08/03 01:27:06;;;;;;;3.47;1.60;;;22.40;1.00;;;;;;5033223;28;20049;-79
2022/08/03 01:29:49;;;;;;;2.35;1.45;;;22.20;1.00;;;;;;5033416;28;20021;-78
2022/08/03 01:32:19;;;;;;;2.97;1.27;;;22.30;1.00;;;;;;5033673;28;20371;-79
2022/08/03 01:34:59;;;;;;;1.65;1.40;;;22.30;1.00;;;;;;5033416;28;20026;-79
2022/08/03 01:37:31;;;;;;;1.70;1.60;;;22.40;1.00;;;;;;5032894;28;20029;-79
2022/08/03 01:40:00;;;;;;;1.70;1.60;;;22.30;1.00;;;;;;5033224;28;20108;-79
2022/08/03 01:42:27;;;;;;;2.75;1.52;;;22.20;1.00;;;;;;5033073;28;20033;-78
2022/08/03 01:44:55;;;;;;;1.98;1.50;;;22.20;1.00;;;;;;5033102;28;20025;-79
2022/08/03 01:47:22;;;;;;;1.85;1.50;;;22.30;1.00;;;;;;5033183;28;20096;-78
2022/08/03 01:49:51;;;;;;;2.13;1.60;;;22.30;1.00;;;;;;5032717;28;20021;-79
2022/08/03 01:52:19;;;;;;;1.88;1.65;;;22.20;1.00;;;;;;5032960;28;20029;-79
2022/08/03 01:54:48;;;;;;;3.35;1.38;;;22.20;1.00;;;;;;5033159;28;20036;-79
2022/08/03 01:57:14;;;;;;;1.70;1.55;;;22.10;1.00;;;;;;5032963;28;20029;-79
2022/08/03 01:59:41;;;;;;;2.90;1.50;;;22.00;1.00;;;;;;5032807;28;20025;-78
2022/08/03 02:02:09;;;;;;;1.58;1.40;;;21.90;1.00;;;;;;5032799;28;20029;-79
2022/08/03 02:04:38;;;;;;;2.65;1.50;;;21.90;1.00;;;;;;5032845;28;20425;-79
2022/08/03 02:07:05;;;;;;;3.65;1.80;;;21.80;1.00;;;;;;5031450;28;20026;-78
2022/08/03 02:09:33;;;;;;;2.60;1.50;;;21.80;1.00;;;;;;5032754;28;20409;-78
2022/08/03 02:11:59;;;;;;;2.55;1.50;;;21.80;1.00;;;;;;5032656;28;20448;-78
2022/08/03 02:14:26;;;;;;;2.85;1.67;;;21.60;1.00;;;;;;5032823;28;20056;-79
2022/08/03 02:16:54;;;;;;;2.10;1.55;;;21.60;1.00;;;;;;5032713;28;20021;-78
2022/08/03 02:19:21;;;;;;;1.88;1.60;;;21.50;1.00;;;;;;5032276;28;20035;-78
2022/08/03 02:21:50;;;;;;;1.85;1.60;;;21.50;1.00;;;;;;5032559;28;20037;-78
2022/08/03 02:24:15;;;;;;;2.10;1.88;;;21.40;1.00;;;;;;5032540;28;20018;-78
2022/08/03 02:26:42;;;;;;;3.45;1.70;;;21.30;1.00;;;;;;5032226;28;20068;-78
2022/08/03 02:29:17;;;;;;;1.70;1.45;;;21.40;1.00;;;;;;5032473;28;20029;-78
2022/08/03 02:31:45;;;;;;;1.80;1.70;;;21.50;1.00;;;;;;5032348;28;20489;-78
2022/08/03 02:34:13;;;;;;;2.38;1.60;;;21.50;1.00;;;;;;5032017;28;20032;-78
2022/08/03 02:36:41;;;;;;;3.65;1.58;;;21.60;1.00;;;;;;5032407;28;20025;-78
2022/08/03 02:39:12;;;;;;;1.52;1.42;;;21.70;1.00;;;;;;5032757;28;20524;-78
2022/08/03 02:41:44;;;;;;;2.50;1.50;;;21.80;1.00;;;;;;5032303;28;20029;-78
2022/08/03 02:44:12;;;;;;;2.60;1.70;;;21.70;1.00;;;;;;5032207;28;20083;-78
2022/08/03 02:46:43;;;;;;;3.90;1.40;;;21.70;1.00;;;;;;5032264;28;20017;-78
2022/08/03 02:49:10;;;;;;;2.65;1.58;;;21.60;1.00;;;;;;5031774;28;20034;-78
2022/08/03 02:51:38;;;;;;;2.67;1.58;;;21.50;1.00;;;;;;5032428;28;20022;-79
2022/08/03 02:54:05;;;;;;;4.32;1.80;;;21.60;1.00;;;;;;5031714;28;20113;-79
2022/08/03 02:56:32;;;;;;;1.67;1.58;;;21.60;1.00;;;;;;5031864;28;20022;-79
2022/08/03 02:58:59;;;;;;;2.45;1.80;;;21.60;1.00;;;;;;5032219;28;20036;-78
2022/08/03 03:01:27;;;;;;;1.58;1.48;;;21.50;1.00;;;;;;5031944;28;20506;-79
2022/08/03 03:03:56;;;;;;;2.80;1.70;;;21.20;1.00;;;;;;5031760;28;20083;-78
2022/08/03 03:06:25;;;;;;;3.17;1.58;;;21.10;1.00;;;;;;5032260;28;20025;-78
2022/08/03 03:08:52;;;;;;;3.50;1.70;;;21.20;1.00;;;;;;5031873;28;20512;-79
2022/08/03 03:11:20;;;;;;;1.70;1.60;;;21.20;1.00;;;;;;5032078;28;20025;-79
2022/08/03 03:13:48;;;;;;;1.42;1.33;;;21.30;1.00;;;;;;5031858;28;20108;-79
2022/08/03 03:16:15;;;;;;;3.28;1.55;;;21.30;1.00;;;;;;5031889;28;20029;-79
2022/08/03 03:18:43;;;;;;;2.17;1.50;;;21.50;1.00;;;;;;5031534;28;20034;-78
2022/08/03 03:21:09;;;;;;;2.38;1.80;;;21.20;1.00;;;;;;5031844;28;20029;-78
2022/08/03 03:23:40;;;;;;;1.88;1.30;;;21.20;1.00;;;;;;5031754;28;20057;-78
2022/08/03 03:26:06;;;;;;;1.98;1.60;;;21.10;1.00;;;;;;5031667;28;20050;-78
2022/08/03 03:28:35;;;;;;;2.38;1.67;;;20.90;1.00;;;;;;5031644;28;20013;-78
2022/08/03 03:31:02;;;;;;;4.13;1.60;;;20.90;1.00;;;;;;5031610;28;20445;-79
2022/08/03 03:33:28;;;;;;;2.40;1.33;;;20.70;1.00;;;;;;5031646;28;20063;-78
2022/08/03 03:35:54;;;;;;;5.00;1.75;;;20.50;1.00;;;;;;5031732;28;20085;-78
2022/08/03 03:38:20;;;;;;;1.85;1.70;;;20.50;1.00;;;;;;5031784;28;20029;-79
2022/08/03 03:40:46;;;;;;;1.70;1.60;;;20.60;1.00;;;;;;5031518;28;20548;-79
2022/08/03 03:43:12;;;;;;;1.50;1.40;;;20.70;1.00;;;;;;5031747;28;20029;-79
2022/08/03 03:45:40;;;;;;;1.95;1.50;;;21.00;1.00;;;;;;5031266;28;20025;-78
2022/08/03 03:48:07;;;;;;;2.72;1.60;;;21.00;1.00;;;;;;5031838;28;20025;-78
2022/08/03 03:50:34;;;;;;;2.33;1.92;;;21.00;1.00;;;;;;5031622;28;20466;-78
2022/08/03 03:53:03;;;;;;;2.38;1.48;;;21.00;1.00;;;;;;5031103;28;20030;-78
2022/08/03 03:55:29;;;;;;;4.57;1.85;;;21.10;1.00;;;;;;5031585;28;20029;-79
2022/08/03 03:57:55;;;;;;;2.65;1.70;;;21.00;1.00;;;;;;5031495;28;20033;-78
2022/08/03 04:00:21;;;;;;;2.20;1.58;;;21.10;1.00;;;;;;5031217;28;20029;-78
2022/08/03 04:02:47;;;;;;;2.55;1.65;;;21.00;1.00;;;;;;5031764;28;20026;-78
2022/08/03 04:11:28;;;;;;;2.22;1.50;;;20.90;1.00;;;;;;5035189;28;20036;-78
2022/08/03 04:14:05;;;;;;;1.60;1.50;;;21.00;1.00;;;;;;5031428;28;20045;-78
2022/08/03 04:16:35;;;;;;;2.83;1.80;;;21.00;1.00;;;;;;5034613;28;20084;-78
2022/08/03 04:19:06;;;;;;;3.85;1.60;;;21.00;1.00;;;;;;5034852;28;20026;-78
2022/08/03 04:21:36;;;;;;;2.42;1.70;;;21.00;1.00;;;;;;5034739;28;20393;-78
2022/08/03 04:24:06;;;;;;;2.60;1.83;;;21.00;1.00;;;;;;5034671;28;20029;-78
2022/08/03 04:26:35;;;;;;;4.90;2.05;;;21.10;1.00;;;;;;5034615;28;20069;-78
2022/08/03 04:29:03;;;;;;;3.03;1.60;;;21.00;1.00;;;;;;5034561;28;20050;-78
2022/08/03 04:31:29;;;;;;;2.75;1.85;;;21.20;1.00;;;;;;5034132;28;20394;-79
2022/08/03 04:33:55;;;;;;;1.75;1.50;;;21.10;1.00;;;;;;5034633;28;20181;-78
2022/08/03 04:36:25;;;;;;;1.95;1.63;;;21.10;1.00;;;;;;5034366;28;20123;-78
2022/08/03 04:39:09;;;;;;;1.60;1.50;;;21.10;1.00;;;;;;5034396;28;20505;-78
2022/08/03 04:41:37;;;;;;;1.63;1.40;;;21.00;1.00;;;;;;5034605;28;20030;-78
2022/08/03 04:44:04;;;;;;;5.22;1.73;;;21.00;1.00;;;;;;5033930;28;20592;-78
2022/08/03 04:46:34;;;;;;;1.85;1.75;;;21.10;1.00;;;;;;5033965;28;20030;-77
2022/08/03 04:49:00;;;;;;;6.45;1.80;;;21.00;1.00;;;;;;5034174;28;20498;-78
2022/08/03 04:51:26;;;;;;;3.80;2.28;;;21.10;1.00;;;;;;5033526;28;20088;-81
2022/08/03 04:53:52;;;;;;;4.70;2.25;;;20.80;1.00;;;;;;5034287;28;20025;-81
2022/08/03 04:56:17;;;;;;;3.05;2.03;;;20.90;1.00;;;;;;5034164;28;20551;-80
2022/08/03 04:58:43;;;;;;;4.93;2.10;;;20.80;1.00;;;;;;5033620;28;20502;-81
2022/08/03 05:01:09;;;;;;;4.35;1.80;;;20.90;1.00;;;;;;5034008;28;20087;-81
2022/08/03 05:03:35;;;;;;;4.72;1.85;;;21.00;1.00;;;;;;5034214;28;20100;-80
2022/08/03 05:06:00;;;;;;;4.97;2.08;;;21.00;1.00;;;;;;5033672;28;20509;-80
2022/08/03 05:08:26;;;;;;;4.65;2.30;;;21.20;1.00;;;;;;5033384;28;20029;-81
2022/08/03 05:10:52;;;;;;;1.92;1.70;;;21.20;1.00;;;;;;5034158;28;20545;-80
2022/08/03 05:13:18;;;;;;;4.15;2.10;;;21.10;1.00;;;;;;5033393;28;20490;-80
2022/08/03 05:15:43;;;;;;;4.47;1.90;;;21.10;1.00;;;;;;5034040;28;20031;-80
2022/08/03 05:18:09;;;;;;;3.10;1.88;;;21.20;1.00;;;;;;5033101;28;20060;-81
2022/08/03 05:20:35;;;;;;;4.07;2.00;;;21.30;1.00;;;;;;5032198;28;20080;-81
2022/08/03 05:23:02;;;;;;;5.03;1.80;;;21.20;1.00;;;;;;5033711;28;20108;-81
2022/08/03 05:25:28;;;;;;;5.78;2.00;;;21.20;1.00;;;;;;5032817;28;20048;-78
2022/08/03 05:27:54;;;;;;;4.10;1.95;;;21.30;1.00;;;;;;5032457;28;20057;-78
2022/08/03 05:30:19;;;;;;;2.63;1.88;;;21.20;1.00;;;;;;5033047;28;20092;-78
2022/08/03 05:32:45;;;;;;;3.03;1.95;;;21.10;1.00;;;;;;5033108;28;20501;-79
2022/08/03 05:35:11;;;;;;;3.90;2.13;;;21.20;1.00;;;;;;5033257;28;20051;-78
2022/08/03 05:37:36;;;;;;;4.00;2.00;;;21.30;1.00;;;;;;5033697;28;20025;-78
2022/08/03 05:40:04;;;;;;;3.92;1.98;;;21.40;1.00;;;;;;5033132;28;20029;-78
2022/08/03 05:42:29;;;;;;;4.22;2.03;;;21.40;1.00;;;;;;5033433;28;20025;-77
2022/08/03 05:44:55;;;;;;;2.88;2.33;;;21.30;1.00;;;;;;5033086;28;20036;-78
2022/08/03 05:47:20;;;;;;;5.15;2.40;;;21.30;1.00;;;;;;5033191;28;20084;-78
2022/08/03 05:49:46;;;;;;;3.65;2.33;;;21.30;1.00;;;;;;5033284;28;20386;-78
2022/08/03 05:52:12;;;;;;;3.95;2.10;;;21.40;1.00;;;;;;5032718;28;20383;-78
2022/08/03 05:54:37;;;;;;;2.88;1.98;;;21.60;1.00;;;;;;5033869;28;20022;-78
2022/08/03 05:57:03;;;;;;;3.60;2.40;;;21.70;1.00;;;;;;5032892;28;20060;-78
2022/08/03 05:59:28;;;;;;;3.72;2.20;;;21.60;1.00;;;;;;5032985;28;20025;-78
2022/08/03 06:01:54;;;;;;;3.40;2.33;;;21.80;1.00;;;;;;5032897;28;20396;-78
2022/08/03 06:04:20;;;;;;;2.35;2.05;;;21.90;1.00;;;;;;5032732;28;20117;-78
2022/08/03 06:06:46;;;;;;;3.72;2.20;;;22.00;1.00;;;;;;5032678;28;20049;-78
2022/08/03 06:09:12;;;;;;;6.43;2.30;;;22.00;1.00;;;;;;5033101;28;20029;-78
2022/08/03 06:11:39;;;;;;;2.65;2.30;;;22.10;1.00;;;;;;5032280;28;20084;-78
2022/08/03 06:14:04;;;;;;;2.22;2.00;;;22.20;1.00;;;;;;5032610;28;20041;-78
2022/08/03 06:16:30;;;;;;;2.25;1.90;;;22.30;1.00;;;;;;5032628;28;20033;-78
2022/08/03 06:18:56;;;;;;;3.72;1.90;;;22.50;1.00;;;;;;5031295;28;20025;-78
2022/08/03 06:21:21;;;;;;;4.47;1.90;;;22.60;1.00;;;;;;5032752;28;20071;-78
2022/08/03 06:23:47;;;;;;;2.92;2.00;;;22.60;1.00;;;;;;5032634;28;20052;-78
2022/08/03 06:26:13;;;;;;;4.00;1.90;;;22.70;1.00;;;;;;5031810;28;20046;-78
2022/08/03 06:28:39;;;;;;;3.38;2.00;;;22.80;1.00;;;;;;5032424;28;20516;-78
2022/08/03 06:31:05;;;;;;;2.47;1.90;;;22.80;1.00;;;;;;5031775;28;20083;-78
2022/08/03 06:33:30;;;;;;;5.00;2.00;;;22.90;1.00;;;;;;5032054;28;20041;-78
2022/08/03 06:35:56;;;;;;;3.13;1.88;;;22.90;1.00;;;;;;5032304;28;20402;-78
2022/08/03 06:38:22;;;;;;;2.78;1.85;;;23.10;1.00;;;;;;5032339;28;20029;-78
2022/08/03 06:40:47;;;;;;;4.90;2.10;;;23.10;1.00;;;;;;5031945;28;20037;-78
2022/08/03 06:43:14;;;;;;;2.28;1.70;;;23.30;1.00;;;;;;5032246;28;20048;-78
2022/08/03 06:45:40;;;;;;;4.55;1.75;;;23.40;1.00;;;;;;5032682;28;20064;-79
2022/08/03 06:48:08;;;;;;;4.43;1.90;;;23.40;1.00;;;;;;5032129;28;20032;-77
2022/08/03 06:50:36;;;;;;;2.95;2.00;;;23.50;1.00;;;;;;5032233;28;20033;-78
2022/08/03 06:53:03;;;;;;;3.78;1.90;;;23.60;1.00;;;;;;5032605;28;20046;-78
2022/08/03 06:55:29;;;;;;;3.63;1.63;;;23.80;1.00;;;;;;5031863;28;20080;-78
2022/08/03 06:57:55;;;;;;;4.47;1.80;;;23.90;1.00;;;;;;5032144;28;20022;-78
2022/08/03 07:00:21;;;;;;;2.17;1.70;;;24.00;1.00;;;;;;5032123;28;20029;-78
2022/08/03 07:02:47;;;;;;;2.13;1.75;;;24.10;1.00;;;;;;5031973;28;20453;-78
2022/08/03 07:05:13;;;;;;;3.38;1.85;;;24.10;1.00;;;;;;5031937;28;20042;-78
2022/08/03 07:07:40;;;;;;;3.92;1.88;;;24.20;1.00;;;;;;5032296;28;20030;-78
2022/08/03 07:10:07;;;;;;;4.07;2.05;;;24.30;1.00;;;;;;5031647;28;20030;-78
2022/08/03 07:12:33;;;;;;;3.75;2.10;;;24.40;1.00;;;;;;5031645;28;20084;-78
2022/08/03 07:15:01;;;;;;;4.13;2.00;;;24.50;1.00;;;;;;5031753;28;20033;-78
2022/08/03 07:17:27;;;;;;;4.95;2.15;;;24.60;1.00;;;;;;5031756;28;20478;-78
2022/08/03 07:19:53;;;;;;;7.68;2.28;;;24.70;1.00;;;;;;5031995;28;20466;-78
2022/08/03 07:22:19;;;;;;;2.85;1.92;;;24.90;1.00;;;;;;5032792;28;20051;-78
2022/08/03 07:24:45;;;;;;;5.07;1.98;;;25.00;1.00;;;;;;5031113;28;20037;-78
2022/08/03 07:27:11;;;;;;;4.10;1.98;;;25.10;1.00;;;;;;5031936;28;20049;-78
2022/08/03 07:29:36;;;;;;;4.05;1.90;;;25.20;1.00;;;;;;5031325;28;20456;-78
2022/08/03 07:32:05;;;;;;;3.55;2.00;;;25.40;1.00;;;;;;5031758;28;20034;-79
2022/08/03 07:34:31;;;;;;;2.17;1.75;;;25.50;1.00;;;;;;5031694;28;20476;-79
2022/08/03 07:36:56;;;;;;;5.80;2.08;;;25.60;1.00;;;;;;5031625;28;20067;-78
2022/08/03 07:39:22;;;;;;;2.30;2.00;;;25.70;1.00;;;;;;5031359;28;20044;-79
2022/08/03 07:41:50;;;;;;;3.25;2.00;;;25.80;1.00;;;;;;5033699;28;20049;-79
2022/08/03 07:44:16;;;;;;;4.55;1.95;;;25.90;1.00;;;;;;5035591;28;20091;-79
2022/08/03 07:46:42;;;;;;;4.40;2.00;;;26.00;1.00;;;;;;5035393;28;20022;-79
2022/08/03 07:49:08;;;;;;;2.72;2.15;;;26.10;1.00;;;;;;5035399;28;20092;-78
2022/08/03 07:51:33;;;;;;;5.72;2.15;;;26.20;1.00;;;;;;5035267;28;20034;-79
2022/08/03 07:54:00;;;;;;;3.35;2.10;;;26.20;1.00;;;;;;5034951;28;20508;-78
2022/08/03 07:56:25;;;;;;;4.50;2.03;;;26.20;1.00;;;;;;5035096;28;20036;-79
2022/08/03 07:58:52;;;;;;;4.10;2.10;;;26.20;1.00;;;;;;5035083;28;20404;-78
2022/08/03 08:01:18;;;;;;;5.13;1.90;;;26.30;1.00;;;;;;5035591;28;20033;-78
2022/08/03 08:03:44;;;;;;;3.20;1.90;;;26.30;1.00;;;;;;5034968;28;20029;-79
2022/08/03 08:06:10;;;;;;;3.72;1.98;;;26.40;1.00;;;;;;5035126;28;20474;-79
2022/08/03 08:08:38;;;;;;;5.40;1.90;;;26.50;1.00;;;;;;5034673;28;20083;-79
2022/08/03 08:11:04;;;;;;;3.20;1.80;;;26.70;1.00;;;;;;5035029;28;20104;-78
2022/08/03 08:13:29;;;;;;;2.88;1.70;;;26.60;1.00;;;;;;5034654;28;20502;-79
2022/08/03 08:15:55;;;;;;;1.52;1.42;;;26.70;1.00;;;;;;5035285;28;20033;-79
2022/08/03 08:18:21;;;;;;;2.35;1.85;;;26.80;1.00;;;;;;5034718;28;20029;-79
2022/08/03 08:20:46;;;;;;;4.60;1.90;;;26.90;1.00;;;;;;5034862;28;20030;-79
2022/08/03 08:23:12;;;;;;;5.82;1.90;;;27.10;1.00;;;;;;5034697;28;20021;-79
2022/08/03 08:25:38;;;;;;;3.75;1.70;;;27.20;1.00;;;;;;5034481;28;20029;-78
2022/08/03 08:28:04;;;;;;;4.53;2.00;;;27.20;1.00;;;;;;5034434;28;20489;-79
2022/08/03 08:30:31;;;;;;;5.43;2.05;;;27.40;1.00;;;;;;5034229;28;20041;-79
2022/08/03 08:32:57;;;;;;;4.15;2.00;;;27.50;1.00;;;;;;5034874;28;20034;-79
2022/08/03 08:35:23;;;;;;;6.18;1.60;;;27.60;1.00;;;;;;5034570;28;20108;-79
2022/08/03 08:37:49;;;;;;;3.63;1.90;;;27.60;1.00;;;;;;5034203;28;20037;-79
2022/08/03 08:40:15;;;;;;;4.18;1.77;;;27.70;1.00;;;;;;5034381;28;20071;-79
2022/08/03 08:42:43;;;;;;;5.07;2.03;;;27.90;1.00;;;;;;5034181;28;20413;-79
2022/08/03 08:45:10;;;;;;;2.72;1.80;;;28.00;1.00;;;;;;5034541;28;20505;-79
2022/08/03 08:47:38;;;;;;;2.35;1.75;;;28.10;1.00;;;;;;5034260;28;20064;-79
2022/08/03 08:50:07;;;;;;;4.90;1.90;;;28.10;1.00;;;;;;5033180;28;20021;-81
2022/08/03 08:52:33;;;;;;;3.65;2.00;;;27.90;1.00;;;;;;5032796;28;20045;-80
2022/08/03 08:55:04;;;;;;;4.45;1.90;;;28.00;1.00;;;;;;5033985;28;20032;-80
2022/08/03 08:57:36;;;;;;;3.97;2.03;;;28.20;1.00;;;;;;5033985;28;20044;-80
2022/08/03 09:00:08;;;;;;;2.03;1.80;;;28.30;1.00;;;;;;5034051;28;20022;-80
2022/08/03 09:02:34;;;;;;;5.47;1.95;;;28.50;1.00;;;;;;5034040;28;20038;-80
2022/08/03 09:05:00;;;;;;;2.90;1.98;;;28.50;1.00;;;;;;5033101;28;20524;-80
2022/08/03 09:07:27;;;;;;;5.07;1.77;;;28.50;1.00;;;;;;5033835;28;20026;-80
2022/08/03 09:09:53;;;;;;;4.60;2.08;;;28.60;1.00;;;;;;5033446;28;20033;-80
2022/08/03 09:12:18;;;;;;;4.18;1.88;;;28.60;1.00;;;;;;5033996;28;20034;-80
2022/08/03 09:14:44;;;;;;;2.38;1.83;;;28.70;1.00;;;;;;5033132;28;20548;-80
2022/08/03 09:17:10;;;;;;;4.53;1.70;;;28.90;1.00;;;;;;5033793;28;20113;-80
2022/08/03 09:19:36;;;;;;;2.53;1.70;;;28.90;1.00;;;;;;5032806;28;20029;-80
2022/08/03 09:22:12;;;;;;;6.18;1.98;;;29.10;1.00;;;;;;5033521;28;20029;-81
2022/08/03 09:24:57;;;;;;;5.30;2.00;;;29.30;1.00;;;;;;5033704;28;20048;-80
2022/08/03 09:27:23;;;;;;;6.43;1.85;;;29.50;1.00;;;;;;5033156;28;20045;-81
2022/08/03 09:29:50;;;;;;;1.73;1.50;;;29.50;1.00;;;;;;5031428;28;20048;-81
2022/08/03 09:32:20;;;;;;;4.90;1.42;;;29.50;1.00;;;;;;5032663;28;20516;-81
2022/08/03 09:34:50;;;;;;;4.22;1.67;;;29.40;1.00;;;;;;5033347;28;20049;-81
2022/08/03 09:37:18;;;;;;;2.45;1.55;;;29.50;1.00;;;;;;5033133;28;20096;-81
2022/08/03 09:39:44;;;;;;;3.97;1.42;;;29.60;1.00;;;;;;5033276;28;20062;-81
2022/08/03 09:42:11;;;;;;;3.38;2.00;;;29.80;1.00;;;;;;5032851;28;20029;-82
2022/08/03 09:44:45;;;;;;;3.70;1.65;;;30.10;1.00;;;;;;5032753;28;20036;-81
2022/08/03 09:47:14;;;;;;;3.63;1.67;;;30.00;1.00;;;;;;5032974;28;20064;-81
2022/08/03 09:49:41;;;;;;;5.95;1.75;;;30.20;1.00;;;;;;5032463;28;20404;-81
2022/08/03 09:52:17;;;;;;;1.85;1.60;;;30.00;1.00;;;;;;5032657;28;20497;-81
2022/08/03 09:54:49;;;;;;;3.15;1.80;;;30.00;1.00;;;;;;5032975;28;20029;-81
2022/08/03 09:57:25;;;;;;;2.20;1.75;;;30.20;1.00;;;;;;5032610;28;20061;-81
2022/08/03 09:59:57;;;;;;;2.42;1.85;;;30.10;1.00;;;;;;5031972;28;20022;-81
2022/08/03 10:02:24;;;;;;;4.80;1.67;;;30.30;1.00;;;;;;5031942;28;20571;-81
2022/08/03 10:04:51;;;;;;;2.53;1.60;;;30.40;1.00;;;;;;5032459;28;20029;-81
2022/08/03 10:07:19;;;;;;;1.75;1.45;;;30.50;1.00;;;;;;5031504;28;20033;-81
2022/08/03 10:09:59;;;;;;;2.70;1.63;;;30.60;1.00;;;;;;5032449;28;20057;-81
2022/08/03 10:12:25;;;;;;;2.58;1.63;;;30.70;1.00;;;;;;5032153;28;20029;-81
2022/08/03 10:14:51;;;;;;;3.42;1.63;;;30.80;1.00;;;;;;5031725;28;20402;-81
2022/08/03 10:17:19;;;;;;;4.85;1.75;;;30.90;1.00;;;;;;5032170;28;20466;-81
2022/08/03 10:19:46;;;;;;;5.97;1.90;;;30.90;1.00;;;;;;5031933;28;20032;-81
2022/08/03 10:22:22;;;;;;;4.97;1.90;;;30.90;1.00;;;;;;5032159;28;20033;-81
2022/08/03 10:25:07;;;;;;;4.35;2.10;;;30.90;1.00;;;;;;5031913;28;20037;-81
2022/08/03 10:27:46;;;;;;;3.90;1.90;;;31.00;1.00;;;;;;5012316;28;20045;-81
2022/08/03 10:30:12;;;;;;;2.42;1.83;;;31.10;1.00;;;;;;5018308;28;20026;-81
2022/08/03 10:32:47;;;;;;;6.18;2.35;;;31.20;1.00;;;;;;5030526;28;20034;-85
2022/08/03 10:35:19;;;;;;;4.65;2.42;;;31.60;1.00;;;;;;5031966;28;20049;-81
2022/08/03 10:37:55;;;;;;;2.50;2.30;;;31.50;1.00;;;;;;5032136;28;20071;-83
2022/08/03 10:40:21;;;;;;;3.55;2.22;;;31.30;1.00;;;;;;5032203;28;20091;-81
2022/08/03 10:42:50;;;;;;;4.40;2.53;;;31.50;1.00;;;;;;5032004;28;20064;-82
2022/08/03 10:45:22;;;;;;;6.43;2.60;;;31.80;1.00;;;;;;5031753;28;20097;-82
2022/08/03 10:47:50;;;;;;;5.03;2.40;;;32.20;1.00;;;;;;5031925;28;20026;-90
2022/08/03 10:50:16;;;;;;;2.53;2.25;;;32.20;1.00;;;;;;5032026;28;20026;-86
2022/08/03 10:52:57;;;;;;;3.55;2.50;;;32.30;1.00;;;;;;5030560;28;20034;-82
2022/08/03 10:58:37;;;;;;;3.63;2.30;;;32.50;1.00;;;;;;5032663;28;20031;-82
2022/08/03 11:01:08;;;;;;;4.07;2.40;;;32.70;1.00;;;;;;5032064;28;20060;-81
2022/08/03 11:03:54;;;;;;;2.28;1.95;;;32.80;1.00;;;;;;5031952;28;20022;-81
2022/08/03 11:06:25;;;;;;;4.28;2.20;;;32.80;1.00;;;;;;5031865;28;20033;-82
2022/08/03 11:09:08;;;;;;;2.40;2.20;;;32.60;1.00;;;;;;5030888;28;20109;-82
2022/08/03 11:11:38;;;;;;;3.45;2.42;;;32.80;1.00;;;;;;5031939;28;20026;-82
2022/08/03 11:14:09;;;;;;;2.60;2.35;;;33.20;1.00;;;;;;5031661;28;20033;-83
2022/08/03 11:16:35;;;;;;;3.90;2.20;;;33.70;1.00;;;;;;5032817;28;20029;-80
2022/08/03 11:19:13;;;;;;;2.53;1.92;;;34.40;1.00;;;;;;5035202;28;20040;-80
2022/08/03 11:21:50;;;;;;;2.67;2.20;;;36.80;1.00;;;;;;5033456;28;20021;-80
2022/08/03 11:24:50;;;;;;;3.30;2.20;;;40.20;1.00;;;;;;5035228;28;20432;-80
2022/08/03 11:27:30;;;;;;;2.70;1.95;;;42.40;1.00;;;;;;5035632;28;20055;-80
2022/08/03 11:30:02;;;;;;;2.50;2.30;;;44.00;1.00;;;;;;5034264;28;20417;-80
2022/08/03 11:32:36;;;;;;;3.97;2.38;;;44.40;1.00;;;;;;5035850;28;20072;-80
2022/08/03 11:35:29;;;;;;;4.97;2.30;;;44.70;1.00;;;;;;5021748;28;20543;-80
2022/08/03 11:38:01;;;;;;;5.28;2.42;;;44.80;1.00;;;;;;5009300;28;20038;-80
2022/08/03 11:40:45;;;;;;;5.53;2.30;;;45.20;1.00;;;;;;5023722;28;20096;-80
2022/08/03 11:43:28;;;;;;;6.90;1.90;;;46.60;1.00;;;;;;5035744;28;20157;-81
2022/08/03 11:46:04;;;;;;;3.38;1.85;;;46.90;1.00;;;;;;5035332;28;20029;-80
2022/08/03 11:48:33;;;;;;;3.97;2.40;;;47.70;1.00;;;;;;5034685;28;20037;-80
2022/08/03 11:51:00;;;;;;;2.25;2.00;;;47.20;1.00;;;;;;5034785;28;20026;-80
2022/08/03 11:53:26;;;;;;;3.40;2.20;;;46.90;1.00;;;;;;5034871;28;20048;-80
2022/08/03 11:55:52;;;;;;;2.88;2.08;;;46.10;1.00;;;;;;5035246;28;20025;-80
2022/08/03 11:58:20;;;;;;;3.95;2.20;;;47.40;1.00;;;;;;5035272;28;20017;-80
2022/08/03 12:00:47;;;;;;;2.67;2.03;;;47.60;1.00;;;;;;5034363;28;20021;-80
2022/08/03 12:03:16;;;;;;;1.92;1.70;;;47.60;1.00;;;;;;5035043;28;20091;-80
2022/08/03 12:05:44;;;;;;;5.28;2.10;;;48.00;99.90;;;;;;5034431;28;20517;-81
2022/08/03 12:08:12;;;;;;;2.45;1.85;;;47.40;99.90;;;;;;5034227;28;20029;-81
2022/08/03 12:10:39;;;;;;;3.95;2.03;;;48.30;99.90;;;;;;5030811;28;20022;-81
2022/08/03 12:13:07;;;;;;;3.85;2.17;;;48.20;99.90;;;;;;5033987;28;20168;-81
2022/08/03 12:15:35;;;;;;;2.85;2.10;;;48.50;99.90;;;;;;5034226;28;20021;-80
2022/08/03 12:18:03;;;;;;;3.05;2.03;;;47.90;99.90;;;;;;5034890;28;20033;-81
2022/08/03 12:20:31;;;;;;;2.67;2.00;;;47.40;99.90;;;;;;5034988;28;20032;-80
2022/08/03 12:23:04;;;;;;;2.38;2.17;;;47.90;99.90;;;;;;5034725;28;20033;-81
2022/08/03 12:25:31;;;;;;;2.67;1.92;;;47.40;99.90;;;;;;5032795;28;20021;-81
2022/08/03 12:28:11;;;;;;;3.03;1.90;;;48.10;99.90;;;;;;5032878;28;20057;-80
2022/08/03 12:30:38;;;;;;;2.15;1.95;;;47.90;99.90;;;;;;5033910;28;20041;-81
2022/08/03 12:33:21;;;;;;;1.90;1.70;;;48.20;99.90;;;;;;5021612;28;20104;-81
2022/08/03 12:36:08;;;;;;;2.67;1.85;;;45.90;99.90;;;;;;5030941;28;20022;-81
2022/08/03 12:38:36;;;;;;;2.55;1.80;;;45.70;99.90;;;;;;5033897;28;20433;-81
2022/08/03 12:41:12;;;;;;;2.00;1.80;;;47.20;99.90;;;;;;5034313;28;20029;-81
2022/08/03 12:43:50;;;;;;;2.28;1.90;;;48.70;99.90;;;;;;5018489;28;20089;-81
2022/08/03 12:46:17;;;;;;;3.70;1.83;;;49.10;99.90;;;;;;5023584;28;20116;-80
2022/08/03 12:49:03;;;;;;;3.35;1.77;;;47.90;99.90;;;;;;5019357;28;20041;-81
2022/08/03 12:51:31;;;;;;;4.20;1.95;;;48.60;99.90;;;;;;5003687;28;20095;-81
2022/08/03 12:53:58;;;;;;;2.58;1.92;;;49.50;99.90;;;;;;5018976;28;20088;-81
2022/08/03 12:56:24;;;;;;;3.35;2.22;;;48.60;99.90;;;;;;5030584;28;20245;-81
2022/08/03 12:58:50;;;;;;;3.47;2.00;;;48.30;99.90;;;;;;5013954;28;20037;-81
2022/08/03 13:01:16;;;;;;;3.15;1.90;;;47.90;99.90;;;;;;5021581;28;20026;-81
2022/08/03 13:03:47;;;;;;;1.83;1.70;;;47.10;99.90;;;;;;5030395;28;20025;-81
2022/08/03 13:06:14;;;;;;;3.58;1.80;;;47.00;99.90;;;;;;5030297;28;20026;-81
2022/08/03 13:08:40;;;;;;;4.20;1.60;;;44.50;99.90;;;;;;5021754;28;20021;-81
2022/08/03 13:11:24;;;;;;;2.80;2.00;;;44.30;99.90;;;;;;5033545;28;20548;-81
2022/08/03 13:13:52;;;;;;;1.75;1.65;;;45.60;99.90;;;;;;5026632;28;20045;-81